createdAt,value
2019-05-16T00:00:40.366Z,21.90
2019-05-16T00:02:39.683Z,21.92
2019-05-16T00:04:41.324Z,21.92
2019-05-16T00:06:42.908Z,21.90
2019-05-16T00:08:44.507Z,21.84
2019-05-16T00:10:48.346Z,21.84
2019-05-16T00:12:48.676Z,21.81
2019-05-16T00:14:49.540Z,21.80
2019-05-16T00:16:51.127Z,21.82
2019-05-16T00:18:52.717Z,21.79
2019-05-16T00:20:54.310Z,21.80
2019-05-16T00:22:55.910Z,21.82
2019-05-16T00:24:57.975Z,21.83
2019-05-16T00:26:59.159Z,21.85
2019-05-16T00:29:00.768Z,21.86
2019-05-16T00:31:02.356Z,21.86
2019-05-16T00:33:03.972Z,21.93
2019-05-16T00:35:05.577Z,21.96
2019-05-16T00:37:08.637Z,21.95
2019-05-16T00:39:08.820Z,21.98
2019-05-16T00:41:10.436Z,22.03
2019-05-16T00:43:12.049Z,22.02
2019-05-16T00:45:13.664Z,22.02
2019-05-16T00:47:17.696Z,21.99
2019-05-16T00:49:18.676Z,21.99
2019-05-16T00:51:18.702Z,21.97
2019-05-16T00:53:20.288Z,21.96
2019-05-16T00:55:21.883Z,21.95
2019-05-16T00:57:23.531Z,21.95
2019-05-16T00:59:25.183Z,21.96
2019-05-16T01:01:28.258Z,21.97
2019-05-16T01:03:29.105Z,21.95
2019-05-16T01:05:30.105Z,21.99
2019-05-16T01:07:31.720Z,21.99
2019-05-16T01:09:33.319Z,22.01
2019-05-16T01:11:34.913Z,22.01
2019-05-16T01:13:38.080Z,22.00
2019-05-16T01:15:38.177Z,21.98
2019-05-16T01:17:39.772Z,21.98
2019-05-16T01:19:41.365Z,21.97
2019-05-16T01:21:42.948Z,21.94
2019-05-16T01:23:44.556Z,21.95
2019-05-16T01:25:48.113Z,21.97
2019-05-16T01:27:47.822Z,21.97
2019-05-16T01:29:49.449Z,22.00
2019-05-16T01:31:51.046Z,22.00
2019-05-16T01:33:52.687Z,21.85
2019-05-16T01:35:54.297Z,21.97
2019-05-16T01:37:57.965Z,21.93
2019-05-16T01:39:58.732Z,21.95
2019-05-16T01:41:59.217Z,21.99
2019-05-16T01:44:00.814Z,21.98
2019-05-16T01:46:02.410Z,21.91
2019-05-16T01:48:04.005Z,21.90
2019-05-16T01:50:05.616Z,21.93
2019-05-16T01:52:08.450Z,21.94
2019-05-16T01:54:08.896Z,21.99
2019-05-16T01:56:10.480Z,22.04
2019-05-16T01:58:12.106Z,22.09
2019-05-16T02:00:13.716Z,22.15
2019-05-16T02:02:15.328Z,22.19
2019-05-16T02:04:18.343Z,22.20
2019-05-16T02:06:18.645Z,22.23
2019-05-16T02:08:20.234Z,22.26
2019-05-16T02:10:21.988Z,22.29
2019-05-16T02:12:23.586Z,22.31
2019-05-16T02:14:25.186Z,22.31
2019-05-16T02:16:27.890Z,22.33
2019-05-16T02:18:28.869Z,22.33
2019-05-16T02:20:30.121Z,22.35
2019-05-16T02:22:31.753Z,22.38
2019-05-16T02:24:33.340Z,22.37
2019-05-16T02:26:34.988Z,22.38
2019-05-16T02:28:40.196Z,22.35
2019-05-16T02:30:41.941Z,22.35
2019-05-16T02:32:41.714Z,22.30
2019-05-16T02:34:41.904Z,22.26
2019-05-16T02:36:43.363Z,22.19
2019-05-16T02:38:44.985Z,22.17
2019-05-16T02:40:46.578Z,22.14
2019-05-16T02:42:51.226Z,22.10
2019-05-16T02:44:51.177Z,22.11
2019-05-16T02:46:51.577Z,22.13
2019-05-16T02:48:53.188Z,22.13
2019-05-16T02:50:54.783Z,22.16
2019-05-16T02:52:56.395Z,22.17
2019-05-16T02:55:00.737Z,22.16
2019-05-16T02:57:01.385Z,22.18
2019-05-16T02:59:01.842Z,22.23
2019-05-16T03:01:03.024Z,22.25
2019-05-16T03:03:04.631Z,22.21
2019-05-16T03:05:06.273Z,22.23
2019-05-16T03:07:11.425Z,22.25
2019-05-16T03:09:11.340Z,22.27
2019-05-16T03:11:11.872Z,22.28
2019-05-16T03:13:12.811Z,22.28
2019-05-16T03:15:14.443Z,22.32
2019-05-16T03:17:16.047Z,22.32
2019-05-16T03:19:17.642Z,22.35
2019-05-16T03:21:21.672Z,22.37
2019-05-16T03:23:21.743Z,22.37
2019-05-16T03:25:22.571Z,22.36
2019-05-16T03:27:24.183Z,22.35
2019-05-16T03:29:25.772Z,22.38
2019-05-16T03:31:27.376Z,22.36
2019-05-16T03:33:39.024Z,22.37
2019-05-16T03:35:33.939Z,22.34
2019-05-16T03:37:49.500Z,22.32
2019-05-16T03:39:34.005Z,22.31
2019-05-16T03:41:35.608Z,22.29
2019-05-16T03:43:37.220Z,22.29
2019-05-16T03:45:41.801Z,22.32
2019-05-16T03:47:42.824Z,22.31
2019-05-16T03:49:42.393Z,22.32
2019-05-16T03:51:43.821Z,22.31
2019-05-16T03:53:45.432Z,22.30
2019-05-16T03:55:47.094Z,22.12
2019-05-16T03:57:51.394Z,22.25
2019-05-16T03:59:51.747Z,22.25
2019-05-16T04:01:52.038Z,22.23
2019-05-16T04:03:53.665Z,22.25
2019-05-16T04:05:55.310Z,22.24
2019-05-16T04:08:13.954Z,22.24
2019-05-16T04:10:01.903Z,22.21
2019-05-16T04:12:01.819Z,22.23
2019-05-16T04:14:01.907Z,22.22
2019-05-16T04:16:03.517Z,21.97
2019-05-16T04:18:05.120Z,22.14
2019-05-16T04:20:06.723Z,22.09
2019-05-16T04:22:10.444Z,22.09
2019-05-16T04:24:12.141Z,22.08
2019-05-16T04:26:11.695Z,22.00
2019-05-16T04:28:13.314Z,21.97
2019-05-16T04:30:14.929Z,21.84
2019-05-16T04:32:16.582Z,22.02
2019-05-16T04:34:20.624Z,22.07
2019-05-16T04:36:21.323Z,22.12
2019-05-16T04:38:31.677Z,22.19
2019-05-16T04:40:23.216Z,22.24
2019-05-16T04:42:24.858Z,22.27
2019-05-16T04:44:26.456Z,22.26
2019-05-16T04:46:31.108Z,22.31
2019-05-16T04:48:31.055Z,22.35
2019-05-16T04:50:31.457Z,22.40
2019-05-16T04:52:33.101Z,22.43
2019-05-16T04:54:34.713Z,22.48
2019-05-16T04:56:36.383Z,22.52
2019-05-16T04:58:40.545Z,22.53
2019-05-16T05:00:42.023Z,22.51
2019-05-16T05:02:42.118Z,22.53
2019-05-16T05:04:42.985Z,22.50
2019-05-16T05:06:44.600Z,22.46
2019-05-16T05:08:54.472Z,22.44
2019-05-16T05:10:50.983Z,22.45
2019-05-16T05:12:51.616Z,22.46
2019-05-16T05:14:51.292Z,22.49
2019-05-16T05:16:52.916Z,22.47
2019-05-16T05:18:54.514Z,22.44
2019-05-16T05:20:56.132Z,22.44
2019-05-16T05:22:57.725Z,22.42
2019-05-16T05:25:00.139Z,22.41
2019-05-16T05:27:01.892Z,22.40
2019-05-16T05:29:03.498Z,22.38
2019-05-16T05:31:05.173Z,22.34
2019-05-16T05:33:06.775Z,22.33
2019-05-16T05:35:10.570Z,22.30
2019-05-16T05:37:12.571Z,22.30
2019-05-16T05:39:15.336Z,22.28
2019-05-16T05:41:13.387Z,22.30
2019-05-16T05:43:15.032Z,22.25
2019-05-16T05:45:16.627Z,22.21
2019-05-16T05:47:19.964Z,22.22
2019-05-16T05:49:20.449Z,22.20
2019-05-16T05:51:21.584Z,22.19
2019-05-16T05:53:23.187Z,22.22
2019-05-16T05:55:24.798Z,22.22
2019-05-16T05:57:26.481Z,22.24
2019-05-16T05:59:30.447Z,22.33
2019-05-16T06:01:31.448Z,21.89
2019-05-16T06:03:32.951Z,22.26
2019-05-16T06:05:33.012Z,22.30
2019-05-16T06:07:34.650Z,22.32
2019-05-16T06:09:49.779Z,22.37
2019-05-16T06:11:37.904Z,22.40
2019-05-16T06:13:40.477Z,22.44
2019-05-16T06:15:41.154Z,22.44
2019-05-16T06:17:42.754Z,22.47
2019-05-16T06:19:44.349Z,22.50
2019-05-16T06:21:46.176Z,22.52
2019-05-16T06:23:47.806Z,22.58
2019-05-16T06:25:50.461Z,22.61
2019-05-16T06:27:51.286Z,22.61
2019-05-16T06:29:52.796Z,22.65
2019-05-16T06:31:54.407Z,22.64
2019-05-16T06:33:56.017Z,22.73
2019-05-16T06:36:00.092Z,22.77
2019-05-16T06:38:00.634Z,22.79
2019-05-16T06:40:01.037Z,22.81
2019-05-16T06:42:02.638Z,22.80
2019-05-16T06:44:04.234Z,22.83
2019-05-16T06:46:05.833Z,22.79
2019-05-16T06:48:07.458Z,22.80
2019-05-16T06:50:11.371Z,22.81
2019-05-16T06:52:10.725Z,22.78
2019-05-16T06:54:12.322Z,22.75
2019-05-16T06:56:13.921Z,22.74
2019-05-16T06:58:15.524Z,22.73
2019-05-16T07:00:17.134Z,22.73
2019-05-16T07:02:29.644Z,22.69
2019-05-16T07:04:20.422Z,22.57
2019-05-16T07:06:45.499Z,22.48
2019-05-16T07:08:23.692Z,22.38
2019-05-16T07:10:25.287Z,22.22
2019-05-16T07:12:26.915Z,22.09
2019-05-16T07:14:31.255Z,22.04
2019-05-16T07:16:30.194Z,21.99
2019-05-16T07:18:31.785Z,21.94
2019-05-16T07:20:33.379Z,21.89
2019-05-16T07:22:35.020Z,21.91
2019-05-16T07:24:36.648Z,21.90
2019-05-16T07:26:40.351Z,21.88
2019-05-16T07:28:40.632Z,21.91
2019-05-16T07:30:41.588Z,21.90
2019-05-16T07:32:43.223Z,21.90
2019-05-16T07:34:44.818Z,21.91
2019-05-16T07:36:46.426Z,21.93
2019-05-16T07:38:48.009Z,21.95
2019-05-16T07:40:51.137Z,21.97
2019-05-16T07:42:51.328Z,22.00
2019-05-16T07:44:52.979Z,22.03
2019-05-16T07:46:54.617Z,22.08
2019-05-16T07:48:56.233Z,22.14
2019-05-16T07:51:00.378Z,22.20
2019-05-16T07:53:00.038Z,22.24
2019-05-16T07:55:03.946Z,21.81
2019-05-16T07:57:18.627Z,22.14
2019-05-16T07:59:04.572Z,22.24
2019-05-16T08:01:09.055Z,22.32
2019-05-16T08:03:10.314Z,22.38
2019-05-16T08:05:10.247Z,22.71
2019-05-16T08:07:11.217Z,22.95
2019-05-16T08:09:13.118Z,23.30
2019-05-16T08:11:14.447Z,23.46
2019-05-16T08:13:17.843Z,23.37
2019-05-16T08:15:20.245Z,23.05
2019-05-16T08:17:21.643Z,23.04
2019-05-16T08:19:24.945Z,22.83
2019-05-16T08:21:22.727Z,22.69
2019-05-16T08:23:24.327Z,22.98
2019-05-16T08:25:25.968Z,23.31
2019-05-16T08:27:30.487Z,23.47
2019-05-16T08:29:31.722Z,23.57
2019-05-16T08:31:31.893Z,23.51
2019-05-16T08:33:32.536Z,23.55
2019-05-16T08:35:34.168Z,23.61
2019-05-16T08:37:42.563Z,23.64
2019-05-16T08:39:37.429Z,23.66
2019-05-16T08:41:42.154Z,23.68
2019-05-16T08:43:41.379Z,23.63
2019-05-16T08:45:42.368Z,23.45
2019-05-16T08:47:43.975Z,23.41
2019-05-16T08:49:45.577Z,23.42
2019-05-16T08:51:47.163Z,23.40
2019-05-16T08:53:50.444Z,23.37
2019-05-16T08:55:50.794Z,23.35
2019-05-16T08:57:53.150Z,23.29
2019-05-16T08:59:53.804Z,23.35
2019-05-16T09:01:58.113Z,23.37
2019-05-16T09:04:01.198Z,23.28
2019-05-16T09:06:02.594Z,23.25
2019-05-16T09:08:01.028Z,23.22
2019-05-16T09:10:02.100Z,23.47
2019-05-16T09:12:03.711Z,23.62
2019-05-16T09:14:07.926Z,23.64
2019-05-16T09:16:07.840Z,23.54
2019-05-16T09:18:08.630Z,23.55
2019-05-16T09:20:10.234Z,23.61
2019-05-16T09:22:11.850Z,23.48
2019-05-16T09:24:13.436Z,23.34
2019-05-16T09:26:18.738Z,23.26
2019-05-16T09:28:16.981Z,23.20
2019-05-16T09:30:18.378Z,23.00
2019-05-16T09:32:21.705Z,22.77
2019-05-16T09:34:21.664Z,22.60
2019-05-16T09:36:23.268Z,22.52
2019-05-16T09:38:28.075Z,22.48
2019-05-16T09:40:27.809Z,22.47
2019-05-16T09:42:28.213Z,22.45
2019-05-16T09:44:29.888Z,22.43
2019-05-16T09:46:31.482Z,22.44
2019-05-16T09:48:33.078Z,22.48
2019-05-16T09:50:34.712Z,22.47
2019-05-16T09:52:36.476Z,22.44
2019-05-16T09:54:38.103Z,22.47
2019-05-16T09:56:39.669Z,22.50
2019-05-16T09:58:41.285Z,22.54
2019-05-16T10:00:42.917Z,22.54
2019-05-16T10:02:47.315Z,22.56
2019-05-16T10:04:47.364Z,22.60
2019-05-16T10:06:47.893Z,22.60
2019-05-16T10:08:49.507Z,22.61
2019-05-16T10:10:51.142Z,22.59
2019-05-16T10:12:52.752Z,22.62
2019-05-16T10:14:54.372Z,22.60
2019-05-16T10:16:57.847Z,22.65
2019-05-16T10:18:57.603Z,22.62
2019-05-16T10:20:59.430Z,22.61
2019-05-16T10:23:01.000Z,22.62
2019-05-16T10:25:02.614Z,22.62
2019-05-16T10:27:06.448Z,22.62
2019-05-16T10:29:10.429Z,22.65
2019-05-16T10:31:07.678Z,22.61
2019-05-16T10:33:09.292Z,22.68
2019-05-16T10:35:10.931Z,22.84
2019-05-16T10:37:12.683Z,22.83
2019-05-16T10:39:14.287Z,22.81
2019-05-16T10:41:15.886Z,22.76
2019-05-16T10:43:17.537Z,22.73
2019-05-16T10:45:19.128Z,22.73
2019-05-16T10:47:20.892Z,22.71
2019-05-16T10:49:36.582Z,22.73
2019-05-16T10:51:24.228Z,22.72
2019-05-16T10:53:53.765Z,22.72
2019-05-16T10:55:27.851Z,22.68
2019-05-16T10:57:29.937Z,22.66
2019-05-16T10:59:57.904Z,22.65
2019-05-16T11:01:32.581Z,22.66
2019-05-16T11:03:34.245Z,22.63
2019-05-16T11:05:38.855Z,22.60
2019-05-16T11:07:37.688Z,22.60
2019-05-16T11:09:39.549Z,22.59
2019-05-16T11:11:40.863Z,22.57
2019-05-16T11:13:42.473Z,22.57
2019-05-16T11:15:44.074Z,22.61
2019-05-16T11:17:45.731Z,22.89
2019-05-16T11:19:47.333Z,22.94
2019-05-16T11:21:48.956Z,22.87
2019-05-16T11:23:50.551Z,22.64
2019-05-16T11:25:55.238Z,22.48
2019-05-16T11:27:53.840Z,22.33
2019-05-16T11:29:56.640Z,22.27
2019-05-16T11:31:57.453Z,22.28
2019-05-16T11:33:58.796Z,22.25
2019-05-16T11:36:00.531Z,22.29
2019-05-16T11:38:02.218Z,22.29
2019-05-16T11:40:03.813Z,22.28
2019-05-16T11:42:07.729Z,22.28
2019-05-16T11:44:07.159Z,22.28
2019-05-16T11:46:08.772Z,22.25
2019-05-16T11:48:10.420Z,22.23
2019-05-16T11:50:12.017Z,22.21
2019-05-16T11:52:13.633Z,22.19
2019-05-16T11:54:15.226Z,22.19
2019-05-16T11:56:16.818Z,22.18
2019-05-16T11:58:18.456Z,22.16
2019-05-16T12:00:20.049Z,22.13
2019-05-16T12:02:21.711Z,22.00
2019-05-16T12:04:23.316Z,22.11
2019-05-16T12:06:26.804Z,22.10
2019-05-16T12:08:26.626Z,22.08
2019-05-16T12:10:28.222Z,22.05
2019-05-16T12:12:29.837Z,22.05
2019-05-16T12:14:31.516Z,22.07
2019-05-16T12:16:33.114Z,22.04
2019-05-16T12:18:37.132Z,22.03
2019-05-16T12:20:36.534Z,22.03
2019-05-16T12:22:38.161Z,22.03
2019-05-16T12:24:41.493Z,22.03
2019-05-16T12:26:41.419Z,21.90
2019-05-16T12:28:43.048Z,22.02
2019-05-16T12:30:46.973Z,22.02
2019-05-16T12:32:47.051Z,22.01
2019-05-16T12:34:48.000Z,22.03
2019-05-16T12:36:49.621Z,22.00
2019-05-16T12:38:51.280Z,21.98
2019-05-16T12:40:52.892Z,21.98
2019-05-16T12:42:57.162Z,22.00
2019-05-16T12:44:56.393Z,22.00
2019-05-16T12:46:57.809Z,22.01
2019-05-16T12:48:59.408Z,22.01
2019-05-16T12:51:01.080Z,22.02
2019-05-16T12:53:02.683Z,22.02
2019-05-16T12:55:04.328Z,22.03
2019-05-16T12:57:05.927Z,22.03
2019-05-16T12:59:07.536Z,22.03
2019-05-16T13:01:09.147Z,22.04
2019-05-16T13:03:10.733Z,22.05
2019-05-16T13:05:12.339Z,22.05
2019-05-16T13:07:13.994Z,22.04
2019-05-16T13:09:18.274Z,22.02
2019-05-16T13:11:17.763Z,22.02
2019-05-16T13:13:18.944Z,22.01
2019-05-16T13:15:20.559Z,22.05
2019-05-16T13:17:22.154Z,22.04
2019-05-16T13:19:23.852Z,22.05
2019-05-16T13:21:27.517Z,22.05
2019-05-16T13:23:27.148Z,22.03
2019-05-16T13:25:28.788Z,22.03
2019-05-16T13:27:30.396Z,22.05
2019-05-16T13:29:32.017Z,22.02
2019-05-16T13:31:33.609Z,22.03
2019-05-16T13:33:36.795Z,22.02
2019-05-16T13:35:37.237Z,22.01
2019-05-16T13:37:38.521Z,21.99
2019-05-16T13:39:40.118Z,21.98
2019-05-16T13:41:41.764Z,21.98
2019-05-16T13:43:43.380Z,21.97
2019-05-16T13:45:47.141Z,21.97
2019-05-16T13:47:48.550Z,21.96
2019-05-16T13:49:48.426Z,21.95
2019-05-16T13:51:50.034Z,21.94
2019-05-16T13:53:51.640Z,21.88
2019-05-16T13:55:53.277Z,21.84
2019-05-16T13:57:54.914Z,21.78
2019-05-16T13:59:56.829Z,21.74
2019-05-16T14:01:58.192Z,21.70
2019-05-16T14:03:59.816Z,21.68
2019-05-16T14:06:01.433Z,21.65
2019-05-16T14:08:03.054Z,21.63
2019-05-16T14:10:04.664Z,21.64
2019-05-16T14:12:06.771Z,21.68
2019-05-16T14:14:07.920Z,21.69
2019-05-16T14:16:09.511Z,21.72
2019-05-16T14:18:11.132Z,21.75
2019-05-16T14:20:14.816Z,21.77
2019-05-16T14:22:17.239Z,21.79
2019-05-16T14:24:18.077Z,21.83
2019-05-16T14:26:17.767Z,21.84
2019-05-16T14:28:19.398Z,21.85
2019-05-16T14:30:21.046Z,21.87
2019-05-16T14:32:22.666Z,21.86
2019-05-16T14:34:27.661Z,21.89
2019-05-16T14:36:27.814Z,21.90
2019-05-16T14:38:27.654Z,21.90
2019-05-16T14:40:29.360Z,21.93
2019-05-16T14:42:30.970Z,21.95
2019-05-16T14:44:32.569Z,21.95
2019-05-16T14:46:34.178Z,21.95
2019-05-16T14:48:36.970Z,21.97
2019-05-16T14:50:37.921Z,21.95
2019-05-16T14:52:39.089Z,21.97
2019-05-16T14:54:40.685Z,22.04
2019-05-16T14:56:42.337Z,22.08
2019-05-16T14:58:43.938Z,22.06
2019-05-16T15:00:49.059Z,22.08
2019-05-16T15:02:47.984Z,22.08
2019-05-16T15:04:49.519Z,21.86
2019-05-16T15:06:50.641Z,22.06
2019-05-16T15:08:52.248Z,22.03
2019-05-16T15:10:53.847Z,21.98
2019-05-16T15:12:56.970Z,21.81
2019-05-16T15:15:02.473Z,21.87
2019-05-16T15:16:58.931Z,21.83
2019-05-16T15:19:00.569Z,21.78
2019-05-16T15:21:02.206Z,21.73
2019-05-16T15:23:03.871Z,21.73
2019-05-16T15:25:08.008Z,21.74
2019-05-16T15:27:08.364Z,21.75
2019-05-16T15:29:08.860Z,21.64
2019-05-16T15:31:10.467Z,21.78
2019-05-16T15:33:12.089Z,21.80
2019-05-16T15:35:13.708Z,21.79
2019-05-16T15:37:17.178Z,21.77
2019-05-16T15:39:17.249Z,21.50
2019-05-16T15:41:18.784Z,21.73
2019-05-16T15:43:20.436Z,21.70
2019-05-16T15:45:34.719Z,21.66
2019-05-16T15:47:23.717Z,21.60
2019-05-16T15:49:26.506Z,21.56
2019-05-16T15:51:27.406Z,21.50
2019-05-16T15:53:28.633Z,21.48
2019-05-16T15:55:30.226Z,21.48
2019-05-16T15:57:31.812Z,21.52
2019-05-16T15:59:33.426Z,21.52
2019-05-16T16:01:37.634Z,21.54
2019-05-16T16:03:38.130Z,21.56
2019-05-16T16:05:38.466Z,21.55
2019-05-16T16:07:40.103Z,21.58
2019-05-16T16:09:41.726Z,21.59
2019-05-16T16:11:43.322Z,21.63
2019-05-16T16:13:44.953Z,21.62
2019-05-16T16:15:53.322Z,21.65
2019-05-16T16:17:48.245Z,21.68
2019-05-16T16:19:49.884Z,21.67
2019-05-16T16:21:51.482Z,21.74
2019-05-16T16:23:53.079Z,21.76
2019-05-16T16:25:59.277Z,21.78
2019-05-16T16:27:57.272Z,21.79
2019-05-16T16:29:58.043Z,21.81
2019-05-16T16:31:59.660Z,21.77
2019-05-16T16:34:01.254Z,21.74
2019-05-16T16:36:02.873Z,21.68
2019-05-16T16:38:06.853Z,21.65
2019-05-16T16:40:11.266Z,21.61
2019-05-16T16:42:07.896Z,21.63
2019-05-16T16:44:09.486Z,21.62
2019-05-16T16:46:13.560Z,21.52
2019-05-16T16:48:12.765Z,21.58
2019-05-16T16:50:16.921Z,21.67
2019-05-16T16:52:16.773Z,21.68
2019-05-16T16:54:17.737Z,21.73
2019-05-16T16:56:19.334Z,21.73
2019-05-16T16:58:20.950Z,21.70
2019-05-16T17:00:22.571Z,21.76
2019-05-16T17:02:24.228Z,21.78
2019-05-16T17:04:26.719Z,21.77
2019-05-16T17:06:27.550Z,21.81
2019-05-16T17:08:29.241Z,21.82
2019-05-16T17:10:30.840Z,21.80
2019-05-16T17:12:32.473Z,21.84
2019-05-16T17:14:34.065Z,21.84
2019-05-16T17:16:37.737Z,21.84
2019-05-16T17:18:37.478Z,21.85
2019-05-16T17:20:39.107Z,21.83
2019-05-16T17:22:40.748Z,21.80
2019-05-16T17:24:42.331Z,21.81
2019-05-16T17:26:43.997Z,21.83
2019-05-16T17:28:46.695Z,21.80
2019-05-16T17:30:47.328Z,21.80
2019-05-16T17:32:48.951Z,21.80
2019-05-16T17:34:50.562Z,21.79
2019-05-16T17:36:52.251Z,21.80
2019-05-16T17:38:53.850Z,21.78
2019-05-16T17:40:57.003Z,21.74
2019-05-16T17:42:57.170Z,21.74
2019-05-16T17:44:58.763Z,21.70
2019-05-16T17:47:00.374Z,21.63
2019-05-16T17:49:01.976Z,21.57
2019-05-16T17:51:03.656Z,21.52
2019-05-16T17:53:07.053Z,21.51
2019-05-16T17:55:07.416Z,21.51
2019-05-16T17:57:08.606Z,21.56
2019-05-16T17:59:10.202Z,21.58
2019-05-16T18:01:11.798Z,21.60
2019-05-16T18:03:13.400Z,21.58
2019-05-16T18:05:16.974Z,21.57
2019-05-16T18:07:16.709Z,21.59
2019-05-16T18:09:18.318Z,21.54
2019-05-16T18:11:19.906Z,21.52
2019-05-16T18:13:21.516Z,21.49
2019-05-16T18:15:23.132Z,21.48
2019-05-16T18:17:26.725Z,21.46
2019-05-16T18:19:26.553Z,21.46
2019-05-16T18:21:28.066Z,21.48
2019-05-16T18:23:29.658Z,21.51
2019-05-16T18:25:31.245Z,21.52
2019-05-16T18:27:32.843Z,21.54
2019-05-16T18:29:36.441Z,21.46
2019-05-16T18:31:37.250Z,21.60
2019-05-16T18:33:38.084Z,21.61
2019-05-16T18:35:39.778Z,21.64
2019-05-16T18:37:41.452Z,21.60
2019-05-16T18:39:43.054Z,21.64
2019-05-16T18:41:47.045Z,21.65
2019-05-16T18:43:47.247Z,21.55
2019-05-16T18:45:48.000Z,21.64
2019-05-16T18:47:49.642Z,21.59
2019-05-16T18:49:51.248Z,21.53
2019-05-16T18:51:52.887Z,21.50
2019-05-16T18:53:54.495Z,21.49
2019-05-16T18:55:57.069Z,21.51
2019-05-16T18:57:57.803Z,21.51
2019-05-16T18:59:59.420Z,21.49
2019-05-16T19:02:01.072Z,21.43
2019-05-16T19:04:02.678Z,21.40
2019-05-16T19:06:04.268Z,21.37
2019-05-16T19:08:07.377Z,21.32
2019-05-16T19:10:07.541Z,21.28
2019-05-16T19:12:09.225Z,21.24
2019-05-16T19:14:10.841Z,21.22
2019-05-16T19:16:12.433Z,21.26
2019-05-16T19:18:14.066Z,21.32
2019-05-16T19:20:17.187Z,21.40
2019-05-16T19:22:17.316Z,21.44
2019-05-16T19:24:18.926Z,21.50
2019-05-16T19:26:20.537Z,21.54
2019-05-16T19:28:22.156Z,21.47
2019-05-16T19:30:26.276Z,21.65
2019-05-16T19:32:25.426Z,21.70
2019-05-16T19:34:27.107Z,21.75
2019-05-16T19:36:28.684Z,21.77
2019-05-16T19:38:30.340Z,21.78
2019-05-16T19:40:31.944Z,21.81
2019-05-16T19:42:33.542Z,21.80
2019-05-16T19:44:37.066Z,21.82
2019-05-16T19:46:38.801Z,21.81
2019-05-16T19:48:38.569Z,21.80
2019-05-16T19:50:40.283Z,21.80
2019-05-16T19:52:41.987Z,21.82
2019-05-16T19:54:43.572Z,21.83
2019-05-16T19:56:46.943Z,21.83
2019-05-16T19:58:46.866Z,21.85
2019-05-16T20:00:48.462Z,21.85
2019-05-16T20:02:50.105Z,21.80
2019-05-16T20:04:51.692Z,21.75
2019-05-16T20:06:53.290Z,21.71
2019-05-16T20:08:54.903Z,21.64
2019-05-16T20:10:56.549Z,21.63
2019-05-16T20:12:58.146Z,21.63
2019-05-16T20:15:08.041Z,21.61
2019-05-16T20:17:01.367Z,21.57
2019-05-16T20:19:02.965Z,21.51
2019-05-16T20:21:04.589Z,21.44
2019-05-16T20:23:06.200Z,21.38
2019-05-16T20:25:07.811Z,21.34
2019-05-16T20:27:09.410Z,21.28
2019-05-16T20:29:11.024Z,21.21
2019-05-16T20:31:12.664Z,21.15
2019-05-16T20:33:14.335Z,21.15
2019-05-16T20:35:17.468Z,21.12
2019-05-16T20:37:17.612Z,21.07
2019-05-16T20:39:19.225Z,21.05
2019-05-16T20:41:20.840Z,21.01
2019-05-16T20:43:22.462Z,20.98
2019-05-16T20:45:24.080Z,20.95
2019-05-16T20:47:27.171Z,20.94
2019-05-16T20:49:27.339Z,20.93
2019-05-16T20:51:28.943Z,20.93
2019-05-16T20:53:30.547Z,20.93
2019-05-16T20:55:32.188Z,20.93
2019-05-16T20:57:33.813Z,21.23
2019-05-16T20:59:35.442Z,21.51
2019-05-16T21:01:37.074Z,21.78
2019-05-16T21:03:38.670Z,21.92
2019-05-16T21:05:40.376Z,22.01
2019-05-16T21:07:42.006Z,22.60
2019-05-16T21:09:43.632Z,22.69
2019-05-16T21:11:46.836Z,22.78
2019-05-16T21:13:49.090Z,22.90
2019-05-16T21:15:48.747Z,22.98
2019-05-16T21:17:50.535Z,22.76
2019-05-16T21:19:52.156Z,22.82
2019-05-16T21:21:53.766Z,22.92
2019-05-16T21:23:56.302Z,23.01
2019-05-16T21:25:57.183Z,22.93
2019-05-16T21:27:58.696Z,22.92
2019-05-16T21:30:00.300Z,23.02
2019-05-16T21:32:01.901Z,22.93
2019-05-16T21:34:03.508Z,23.18
2019-05-16T21:36:07.039Z,23.05
2019-05-16T21:38:08.892Z,22.81
2019-05-16T21:40:08.519Z,22.70
2019-05-16T21:42:10.104Z,22.87
2019-05-16T21:44:11.729Z,23.08
2019-05-16T21:46:13.355Z,23.10
2019-05-16T21:48:16.320Z,22.89
2019-05-16T21:50:19.051Z,22.79
2019-05-16T21:52:18.306Z,22.85
2019-05-16T21:54:19.928Z,23.06
2019-05-16T21:56:21.526Z,22.92
2019-05-16T21:58:23.122Z,22.81
2019-05-16T22:00:26.562Z,22.80
2019-05-16T22:02:26.646Z,22.81
2019-05-16T22:04:28.075Z,22.81
2019-05-16T22:06:29.671Z,22.84
2019-05-16T22:08:31.541Z,22.82
2019-05-16T22:10:33.179Z,22.77
2019-05-16T22:12:34.793Z,22.77
2019-05-16T22:14:36.870Z,22.78
2019-05-16T22:16:38.055Z,22.77
2019-05-16T22:18:39.653Z,22.79
2019-05-16T22:20:41.295Z,22.56
2019-05-16T22:22:42.963Z,21.75
2019-05-16T22:24:46.176Z,22.38
2019-05-16T22:26:46.694Z,22.48
2019-05-16T22:28:49.499Z,22.71
2019-05-16T22:30:49.581Z,22.65
2019-05-16T22:32:51.182Z,22.75
2019-05-16T22:34:52.773Z,22.75
2019-05-16T22:36:54.365Z,22.70
2019-05-16T22:38:56.737Z,22.69
2019-05-16T22:40:57.640Z,22.73
2019-05-16T22:42:59.253Z,22.76
2019-05-16T22:45:00.863Z,22.89
2019-05-16T22:47:02.476Z,22.87
2019-05-16T22:49:04.072Z,22.87
2019-05-16T22:51:07.130Z,22.87
2019-05-16T22:53:07.668Z,22.82
2019-05-16T22:55:09.260Z,22.83
2019-05-16T22:57:10.907Z,22.80
2019-05-16T22:59:12.503Z,22.75
2019-05-16T23:01:14.129Z,22.73
2019-05-16T23:03:17.411Z,22.77
2019-05-16T23:05:17.448Z,22.86
2019-05-16T23:07:19.072Z,22.53
2019-05-16T23:09:20.665Z,22.28
2019-05-16T23:11:22.268Z,22.27
2019-05-16T23:13:23.908Z,22.21
2019-05-16T23:15:26.556Z,22.14
2019-05-16T23:17:27.236Z,22.07
2019-05-16T23:19:28.830Z,22.00
2019-05-16T23:21:30.440Z,21.95
2019-05-16T23:23:32.084Z,21.93
2019-05-16T23:25:33.685Z,21.89
2019-05-16T23:27:36.903Z,21.85
2019-05-16T23:29:36.992Z,21.79
2019-05-16T23:31:38.604Z,21.74
2019-05-16T23:33:40.210Z,21.76
2019-05-16T23:35:41.860Z,21.75
2019-05-16T23:37:43.463Z,21.71
2019-05-16T23:39:47.322Z,21.69
2019-05-16T23:41:47.396Z,21.64
2019-05-16T23:43:48.368Z,21.61
2019-05-16T23:45:49.994Z,21.55
2019-05-16T23:47:51.626Z,21.57
2019-05-16T23:49:53.304Z,21.60
2019-05-16T23:51:56.773Z,21.64
2019-05-16T23:53:57.107Z,21.65
2019-05-16T23:55:58.384Z,21.67
2019-05-16T23:57:59.987Z,21.66
